sensor_id;sensor_type;location;lat;lon;timestamp;temperature;humidity
11961;DHT22;6040;49.358;11.140;2022-08-01T00:02:05;19.70;92.10
11961;DHT22;6040;49.358;11.140;2022-08-01T00:04:32;19.60;92.40
11961;DHT22;6040;49.358;11.140;2022-08-01T00:06:59;19.60;92.60
11961;DHT22;6040;49.358;11.140;2022-08-01T00:09:26;19.60;92.70
11961;DHT22;6040;49.358;11.140;2022-08-01T00:11:53;19.50;92.80
11961;DHT22;6040;49.358;11.140;2022-08-01T00:14:20;19.50;93.10
11961;DHT22;6040;49.358;11.140;2022-08-01T00:16:47;19.40;93.20
11961;DHT22;6040;49.358;11.140;2022-08-01T00:19:15;19.30;93.30
11961;DHT22;6040;49.358;11.140;2022-08-01T00:21:42;19.30;93.50
11961;DHT22;6040;49.358;11.140;2022-08-01T00:24:09;19.30;93.60
11961;DHT22;6040;49.358;11.140;2022-08-01T00:26:36;19.30;93.70
11961;DHT22;6040;49.358;11.140;2022-08-01T00:29:03;19.20;93.90
11961;DHT22;6040;49.358;11.140;2022-08-01T00:31:29;19.10;94.30
11961;DHT22;6040;49.358;11.140;2022-08-01T00:33:56;19.10;94.50
11961;DHT22;6040;49.358;11.140;2022-08-01T00:36:24;19.10;94.50
11961;DHT22;6040;49.358;11.140;2022-08-01T00:38:51;19.00;94.40
11961;DHT22;6040;49.358;11.140;2022-08-01T00:41:18;19.00;94.30
11961;DHT22;6040;49.358;11.140;2022-08-01T00:43:45;19.00;94.20
11961;DHT22;6040;49.358;11.140;2022-08-01T00:46:12;18.90;94.40
11961;DHT22;6040;49.358;11.140;2022-08-01T00:48:39;18.90;94.40
11961;DHT22;6040;49.358;11.140;2022-08-01T00:51:07;18.80;94.50
11961;DHT22;6040;49.358;11.140;2022-08-01T00:53:36;18.80;94.70
11961;DHT22;6040;49.358;11.140;2022-08-01T00:56:03;18.70;94.90
11961;DHT22;6040;49.358;11.140;2022-08-01T00:58:31;18.70;95.20
11961;DHT22;6040;49.358;11.140;2022-08-01T01:00:58;18.60;95.50
11961;DHT22;6040;49.358;11.140;2022-08-01T01:03:25;18.50;95.70
11961;DHT22;6040;49.358;11.140;2022-08-01T01:05:59;18.50;95.80
11961;DHT22;6040;49.358;11.140;2022-08-01T01:08:36;18.40;95.80
11961;DHT22;6040;49.358;11.140;2022-08-01T01:11:11;18.40;96.00
11961;DHT22;6040;49.358;11.140;2022-08-01T01:13:44;18.30;96.10
11961;DHT22;6040;49.358;11.140;2022-08-01T01:16:13;16.80;95.70
11961;DHT22;6040;49.358;11.140;2022-08-01T01:18:45;18.20;96.30
11961;DHT22;6040;49.358;11.140;2022-08-01T01:21:35;18.20;96.50
11961;DHT22;6040;49.358;11.140;2022-08-01T01:24:28;18.20;96.70
11961;DHT22;6040;49.358;11.140;2022-08-01T01:27:05;18.10;97.00
11961;DHT22;6040;49.358;11.140;2022-08-01T01:29:40;18.00;97.00
11961;DHT22;6040;49.358;11.140;2022-08-01T01:32:14;18.00;97.10
11961;DHT22;6040;49.358;11.140;2022-08-01T01:34:44;17.90;97.40
11961;DHT22;6040;49.358;11.140;2022-08-01T01:37:15;17.90;97.50
11961;DHT22;6040;49.358;11.140;2022-08-01T01:39:42;17.80;97.70
11961;DHT22;6040;49.358;11.140;2022-08-01T01:42:11;17.80;97.90
11961;DHT22;6040;49.358;11.140;2022-08-01T01:44:39;17.80;98.20
11961;DHT22;6040;49.358;11.140;2022-08-01T01:47:07;17.80;98.60
11961;DHT22;6040;49.358;11.140;2022-08-01T01:49:34;17.70;98.70
11961;DHT22;6040;49.358;11.140;2022-08-01T01:52:02;17.70;98.80
11961;DHT22;6040;49.358;11.140;2022-08-01T01:54:32;17.70;98.70
11961;DHT22;6040;49.358;11.140;2022-08-01T01:57:00;17.70;98.70
11961;DHT22;6040;49.358;11.140;2022-08-01T01:59:31;17.70;98.70
11961;DHT22;6040;49.358;11.140;2022-08-01T02:02:03;17.70;98.70
11961;DHT22;6040;49.358;11.140;2022-08-01T02:04:31;17.60;98.90
11961;DHT22;6040;49.358;11.140;2022-08-01T02:06:59;17.60;98.80
11961;DHT22;6040;49.358;11.140;2022-08-01T02:09:27;17.60;99.00
11961;DHT22;6040;49.358;11.140;2022-08-01T02:11:55;17.60;99.20
11961;DHT22;6040;49.358;11.140;2022-08-01T02:14:24;17.60;99.20
11961;DHT22;6040;49.358;11.140;2022-08-01T02:16:54;17.60;99.30
11961;DHT22;6040;49.358;11.140;2022-08-01T02:19:26;17.60;99.30
11961;DHT22;6040;49.358;11.140;2022-08-01T02:21:57;17.70;99.30
11961;DHT22;6040;49.358;11.140;2022-08-01T02:24:29;17.70;99.30
11961;DHT22;6040;49.358;11.140;2022-08-01T02:27:01;17.70;99.20
11961;DHT22;6040;49.358;11.140;2022-08-01T02:29:39;17.80;99.40
11961;DHT22;6040;49.358;11.140;2022-08-01T02:32:08;17.80;99.20
11961;DHT22;6040;49.358;11.140;2022-08-01T02:34:39;17.80;99.20
11961;DHT22;6040;49.358;11.140;2022-08-01T02:37:07;17.90;99.20
11961;DHT22;6040;49.358;11.140;2022-08-01T02:39:36;17.90;99.10
11961;DHT22;6040;49.358;11.140;2022-08-01T02:42:06;17.90;99.10
11961;DHT22;6040;49.358;11.140;2022-08-01T02:44:37;17.90;99.20
11961;DHT22;6040;49.358;11.140;2022-08-01T02:47:05;17.90;99.50
11961;DHT22;6040;49.358;11.140;2022-08-01T02:49:33;17.80;99.50
11961;DHT22;6040;49.358;11.140;2022-08-01T02:52:06;17.80;99.50
11961;DHT22;6040;49.358;11.140;2022-08-01T02:54:35;17.80;99.30
11961;DHT22;6040;49.358;11.140;2022-08-01T02:57:04;17.70;99.40
11961;DHT22;6040;49.358;11.140;2022-08-01T02:59:34;17.70;99.50
11961;DHT22;6040;49.358;11.140;2022-08-01T03:02:03;17.60;99.70
11961;DHT22;6040;49.358;11.140;2022-08-01T03:04:33;17.60;99.50
11961;DHT22;6040;49.358;11.140;2022-08-01T03:07:04;17.60;99.60
11961;DHT22;6040;49.358;11.140;2022-08-01T03:09:35;17.60;99.40
11961;DHT22;6040;49.358;11.140;2022-08-01T03:12:06;17.50;99.50
11961;DHT22;6040;49.358;11.140;2022-08-01T03:14:36;17.50;99.70
11961;DHT22;6040;49.358;11.140;2022-08-01T03:17:06;17.50;99.70
11961;DHT22;6040;49.358;11.140;2022-08-01T03:19:34;17.40;99.90
11961;DHT22;6040;49.358;11.140;2022-08-01T03:22:06;17.40;99.90
11961;DHT22;6040;49.358;11.140;2022-08-01T03:24:35;17.30;99.90
11961;DHT22;6040;49.358;11.140;2022-08-01T03:27:03;17.30;99.90
11961;DHT22;6040;49.358;11.140;2022-08-01T03:29:32;17.20;99.90
11961;DHT22;6040;49.358;11.140;2022-08-01T03:32:00;17.20;99.90
11961;DHT22;6040;49.358;11.140;2022-08-01T03:34:27;17.10;99.90
11961;DHT22;6040;49.358;11.140;2022-08-01T03:36:59;17.10;99.90
11961;DHT22;6040;49.358;11.140;2022-08-01T03:39:34;17.10;99.90
11961;DHT22;6040;49.358;11.140;2022-08-01T03:42:07;17.00;99.90
11961;DHT22;6040;49.358;11.140;2022-08-01T03:44:36;17.10;99.90
11961;DHT22;6040;49.358;11.140;2022-08-01T03:47:07;17.10;99.90
11961;DHT22;6040;49.358;11.140;2022-08-01T03:49:37;17.00;99.90
11961;DHT22;6040;49.358;11.140;2022-08-01T03:52:07;17.00;99.90
11961;DHT22;6040;49.358;11.140;2022-08-01T03:54:40;16.90;99.90
11961;DHT22;6040;49.358;11.140;2022-08-01T03:57:08;16.90;99.90
11961;DHT22;6040;49.358;11.140;2022-08-01T03:59:37;16.80;99.90
11961;DHT22;6040;49.358;11.140;2022-08-01T04:02:04;16.70;99.90
11961;DHT22;6040;49.358;11.140;2022-08-01T04:04:33;16.70;99.90
11961;DHT22;6040;49.358;11.140;2022-08-01T04:07:00;16.70;99.90
11961;DHT22;6040;49.358;11.140;2022-08-01T04:09:32;16.70;99.90
11961;DHT22;6040;49.358;11.140;2022-08-01T04:12:00;16.70;99.90
11961;DHT22;6040;49.358;11.140;2022-08-01T04:14:27;16.80;99.90
11961;DHT22;6040;49.358;11.140;2022-08-01T04:16:54;16.80;99.90
11961;DHT22;6040;49.358;11.140;2022-08-01T04:19:21;16.90;99.90
11961;DHT22;6040;49.358;11.140;2022-08-01T04:21:49;16.90;99.90
11961;DHT22;6040;49.358;11.140;2022-08-01T04:24:17;17.00;99.90
11961;DHT22;6040;49.358;11.140;2022-08-01T04:26:46;17.00;99.90
11961;DHT22;6040;49.358;11.140;2022-08-01T04:29:16;17.00;99.90
11961;DHT22;6040;49.358;11.140;2022-08-01T04:31:46;17.00;99.90
11961;DHT22;6040;49.358;11.140;2022-08-01T04:34:16;17.10;99.90
11961;DHT22;6040;49.358;11.140;2022-08-01T04:36:44;17.20;99.90
11961;DHT22;6040;49.358;11.140;2022-08-01T04:39:12;17.30;99.90
11961;DHT22;6040;49.358;11.140;2022-08-01T04:41:40;17.30;99.90
11961;DHT22;6040;49.358;11.140;2022-08-01T04:44:08;17.30;99.90
11961;DHT22;6040;49.358;11.140;2022-08-01T04:46:37;17.30;99.90
11961;DHT22;6040;49.358;11.140;2022-08-01T04:49:06;17.30;99.90
11961;DHT22;6040;49.358;11.140;2022-08-01T04:51:34;17.40;99.90
11961;DHT22;6040;49.358;11.140;2022-08-01T04:54:01;17.50;99.90
11961;DHT22;6040;49.358;11.140;2022-08-01T04:56:29;17.50;99.90
11961;DHT22;6040;49.358;11.140;2022-08-01T04:58:56;17.60;99.90
11961;DHT22;6040;49.358;11.140;2022-08-01T05:01:41;17.70;99.90
11961;DHT22;6040;49.358;11.140;2022-08-01T05:04:08;17.80;99.90
11961;DHT22;6040;49.358;11.140;2022-08-01T05:06:35;17.90;99.90
11961;DHT22;6040;49.358;11.140;2022-08-01T05:09:02;18.00;99.90
11961;DHT22;6040;49.358;11.140;2022-08-01T05:11:29;18.10;99.90
11961;DHT22;6040;49.358;11.140;2022-08-01T05:13:56;18.20;99.90
11961;DHT22;6040;49.358;11.140;2022-08-01T05:16:23;18.30;99.90
11961;DHT22;6040;49.358;11.140;2022-08-01T05:18:51;18.50;99.90
11961;DHT22;6040;49.358;11.140;2022-08-01T05:21:18;18.70;99.90
11961;DHT22;6040;49.358;11.140;2022-08-01T05:23:44;18.80;99.90
11961;DHT22;6040;49.358;11.140;2022-08-01T05:26:11;18.90;99.80
11961;DHT22;6040;49.358;11.140;2022-08-01T05:28:39;19.00;99.10
11961;DHT22;6040;49.358;11.140;2022-08-01T05:31:06;19.10;99.30
11961;DHT22;6040;49.358;11.140;2022-08-01T05:33:33;19.40;99.00
11961;DHT22;6040;49.358;11.140;2022-08-01T05:36:01;19.60;98.80
11961;DHT22;6040;49.358;11.140;2022-08-01T05:38:28;19.80;98.60
11961;DHT22;6040;49.358;11.140;2022-08-01T05:40:54;20.30;97.50
11961;DHT22;6040;49.358;11.140;2022-08-01T05:43:21;20.70;96.60
11961;DHT22;6040;49.358;11.140;2022-08-01T05:45:48;20.80;96.30
11961;DHT22;6040;49.358;11.140;2022-08-01T05:48:15;20.80;96.30
11961;DHT22;6040;49.358;11.140;2022-08-01T05:50:42;20.80;96.40
11961;DHT22;6040;49.358;11.140;2022-08-01T05:53:10;20.80;96.70
11961;DHT22;6040;49.358;11.140;2022-08-01T05:55:37;20.80;96.90
11961;DHT22;6040;49.358;11.140;2022-08-01T05:58:04;20.80;97.10
11961;DHT22;6040;49.358;11.140;2022-08-01T06:00:30;20.80;97.70
11961;DHT22;6040;49.358;11.140;2022-08-01T06:02:57;20.90;97.30
11961;DHT22;6040;49.358;11.140;2022-08-01T06:05:24;20.90;97.50
11961;DHT22;6040;49.358;11.140;2022-08-01T06:07:51;20.90;97.30
11961;DHT22;6040;49.358;11.140;2022-08-01T06:10:20;21.00;97.40
11961;DHT22;6040;49.358;11.140;2022-08-01T06:12:47;21.20;97.40
11961;DHT22;6040;49.358;11.140;2022-08-01T06:15:14;21.20;97.50
11961;DHT22;6040;49.358;11.140;2022-08-01T06:17:41;21.40;97.60
11961;DHT22;6040;49.358;11.140;2022-08-01T06:20:09;21.60;97.40
11961;DHT22;6040;49.358;11.140;2022-08-01T06:22:36;21.90;97.30
11961;DHT22;6040;49.358;11.140;2022-08-01T06:25:04;22.20;96.60
11961;DHT22;6040;49.358;11.140;2022-08-01T06:27:34;22.40;96.10
11961;DHT22;6040;49.358;11.140;2022-08-01T06:30:00;22.60;96.00
11961;DHT22;6040;49.358;11.140;2022-08-01T06:32:27;22.90;96.40
11961;DHT22;6040;49.358;11.140;2022-08-01T06:34:55;23.70;96.10
11961;DHT22;6040;49.358;11.140;2022-08-01T06:37:22;24.50;93.90
11961;DHT22;6040;49.358;11.140;2022-08-01T06:39:49;24.80;92.70
11961;DHT22;6040;49.358;11.140;2022-08-01T06:42:16;24.90;92.00
11961;DHT22;6040;49.358;11.140;2022-08-01T06:44:44;25.00;92.80
11961;DHT22;6040;49.358;11.140;2022-08-01T06:47:12;25.40;91.90
11961;DHT22;6040;49.358;11.140;2022-08-01T06:49:38;25.60;91.30
11961;DHT22;6040;49.358;11.140;2022-08-01T06:52:05;25.80;91.90
11961;DHT22;6040;49.358;11.140;2022-08-01T06:54:32;26.30;92.10
11961;DHT22;6040;49.358;11.140;2022-08-01T06:56:59;26.90;90.30
11961;DHT22;6040;49.358;11.140;2022-08-01T06:59:26;27.60;90.10
11961;DHT22;6040;49.358;11.140;2022-08-01T07:01:54;28.10;87.30
11961;DHT22;6040;49.358;11.140;2022-08-01T07:04:21;28.50;83.80
11961;DHT22;6040;49.358;11.140;2022-08-01T07:06:48;28.60;82.50
11961;DHT22;6040;49.358;11.140;2022-08-01T07:09:14;28.50;82.50
11961;DHT22;6040;49.358;11.140;2022-08-01T07:11:41;28.30;83.30
11961;DHT22;6040;49.358;11.140;2022-08-01T07:14:08;28.10;83.40
11961;DHT22;6040;49.358;11.140;2022-08-01T07:16:35;28.00;83.60
11961;DHT22;6040;49.358;11.140;2022-08-01T07:19:03;27.90;83.80
11961;DHT22;6040;49.358;11.140;2022-08-01T07:21:30;27.90;83.30
11961;DHT22;6040;49.358;11.140;2022-08-01T07:23:57;27.80;83.50
11961;DHT22;6040;49.358;11.140;2022-08-01T07:26:24;27.80;84.10
11961;DHT22;6040;49.358;11.140;2022-08-01T07:28:52;27.90;85.20
11961;DHT22;6040;49.358;11.140;2022-08-01T07:31:19;28.10;84.80
11961;DHT22;6040;49.358;11.140;2022-08-01T07:33:45;28.30;84.10
11961;DHT22;6040;49.358;11.140;2022-08-01T07:36:14;28.50;84.40
11961;DHT22;6040;49.358;11.140;2022-08-01T07:38:41;28.70;82.50
11961;DHT22;6040;49.358;11.140;2022-08-01T07:41:07;29.10;82.30
11961;DHT22;6040;49.358;11.140;2022-08-01T07:43:35;29.50;80.70
11961;DHT22;6040;49.358;11.140;2022-08-01T07:46:02;29.90;78.90
11961;DHT22;6040;49.358;11.140;2022-08-01T07:48:29;30.40;78.70
11961;DHT22;6040;49.358;11.140;2022-08-01T07:50:56;30.90;75.10
11961;DHT22;6040;49.358;11.140;2022-08-01T07:53:25;31.30;74.70
11961;DHT22;6040;49.358;11.140;2022-08-01T07:55:52;31.50;73.90
11961;DHT22;6040;49.358;11.140;2022-08-01T07:58:19;31.70;73.00
11961;DHT22;6040;49.358;11.140;2022-08-01T08:00:46;31.80;70.40
11961;DHT22;6040;49.358;11.140;2022-08-01T08:03:13;31.50;70.00
11961;DHT22;6040;49.358;11.140;2022-08-01T08:05:40;31.30;70.10
11961;DHT22;6040;49.358;11.140;2022-08-01T08:08:08;31.30;71.20
11961;DHT22;6040;49.358;11.140;2022-08-01T08:10:37;31.20;71.20
11961;DHT22;6040;49.358;11.140;2022-08-01T08:13:04;31.20;71.10
11961;DHT22;6040;49.358;11.140;2022-08-01T08:15:30;31.00;71.00
11961;DHT22;6040;49.358;11.140;2022-08-01T08:17:57;30.70;71.30
11961;DHT22;6040;49.358;11.140;2022-08-01T08:20:24;30.40;71.40
11961;DHT22;6040;49.358;11.140;2022-08-01T08:22:52;29.90;71.90
11961;DHT22;6040;49.358;11.140;2022-08-01T08:25:19;29.80;73.50
11961;DHT22;6040;49.358;11.140;2022-08-01T08:27:48;29.70;72.90
11961;DHT22;6040;49.358;11.140;2022-08-01T08:30:15;29.50;73.60
11961;DHT22;6040;49.358;11.140;2022-08-01T08:32:43;29.50;73.80
11961;DHT22;6040;49.358;11.140;2022-08-01T08:35:10;29.60;75.20
11961;DHT22;6040;49.358;11.140;2022-08-01T08:37:38;29.60;73.20
11961;DHT22;6040;49.358;11.140;2022-08-01T08:40:06;29.80;74.30
11961;DHT22;6040;49.358;11.140;2022-08-01T08:42:33;29.90;73.30
11961;DHT22;6040;49.358;11.140;2022-08-01T08:45:02;29.90;72.90
11961;DHT22;6040;49.358;11.140;2022-08-01T08:47:31;30.20;72.90
11961;DHT22;6040;49.358;11.140;2022-08-01T08:49:59;30.40;73.60
11961;DHT22;6040;49.358;11.140;2022-08-01T08:52:30;30.80;71.20
11961;DHT22;6040;49.358;11.140;2022-08-01T08:54:59;30.80;72.00
11961;DHT22;6040;49.358;11.140;2022-08-01T08:57:25;31.20;72.40
11961;DHT22;6040;49.358;11.140;2022-08-01T08:59:52;31.70;68.20
11961;DHT22;6040;49.358;11.140;2022-08-01T09:02:22;32.00;67.30
11961;DHT22;6040;49.358;11.140;2022-08-01T09:04:49;31.70;67.60
11961;DHT22;6040;49.358;11.140;2022-08-01T09:07:16;31.20;68.20
11961;DHT22;6040;49.358;11.140;2022-08-01T09:09:43;30.50;69.60
11961;DHT22;6040;49.358;11.140;2022-08-01T09:12:09;30.60;72.10
11961;DHT22;6040;49.358;11.140;2022-08-01T09:14:44;31.10;71.50
11961;DHT22;6040;49.358;11.140;2022-08-01T09:17:11;31.50;69.00
11961;DHT22;6040;49.358;11.140;2022-08-01T09:19:41;31.50;67.80
11961;DHT22;6040;49.358;11.140;2022-08-01T09:22:10;31.30;68.10
11961;DHT22;6040;49.358;11.140;2022-08-01T09:24:38;30.70;69.30
11961;DHT22;6040;49.358;11.140;2022-08-01T09:27:16;30.50;69.50
11961;DHT22;6040;49.358;11.140;2022-08-01T09:29:43;30.00;70.00
11961;DHT22;6040;49.358;11.140;2022-08-01T09:32:11;29.60;71.50
11961;DHT22;6040;49.358;11.140;2022-08-01T09:34:39;29.50;72.30
11961;DHT22;6040;49.358;11.140;2022-08-01T09:37:06;29.60;71.40
11961;DHT22;6040;49.358;11.140;2022-08-01T09:39:34;29.70;71.70
11961;DHT22;6040;49.358;11.140;2022-08-01T09:42:19;29.60;71.70
11961;DHT22;6040;49.358;11.140;2022-08-01T09:44:46;29.40;72.00
11961;DHT22;6040;49.358;11.140;2022-08-01T09:47:14;29.30;71.80
11961;DHT22;6040;49.358;11.140;2022-08-01T09:49:44;29.10;72.10
11961;DHT22;6040;49.358;11.140;2022-08-01T09:52:12;28.90;72.50
11961;DHT22;6040;49.358;11.140;2022-08-01T09:54:41;28.90;73.30
11961;DHT22;6040;49.358;11.140;2022-08-01T09:57:13;28.80;73.00
11961;DHT22;6040;49.358;11.140;2022-08-01T09:59:43;28.80;73.20
11961;DHT22;6040;49.358;11.140;2022-08-01T10:02:11;28.80;73.30
11961;DHT22;6040;49.358;11.140;2022-08-01T10:04:48;28.80;73.10
11961;DHT22;6040;49.358;11.140;2022-08-01T10:07:14;29.10;74.00
11961;DHT22;6040;49.358;11.140;2022-08-01T10:09:42;29.80;71.80
11961;DHT22;6040;49.358;11.140;2022-08-01T10:12:10;30.40;71.80
11961;DHT22;6040;49.358;11.140;2022-08-01T10:14:38;31.10;70.60
11961;DHT22;6040;49.358;11.140;2022-08-01T10:17:08;31.60;67.40
11961;DHT22;6040;49.358;11.140;2022-08-01T10:19:36;32.10;64.40
11961;DHT22;6040;49.358;11.140;2022-08-01T10:22:07;32.40;64.10
11961;DHT22;6040;49.358;11.140;2022-08-01T10:24:36;32.70;63.60
11961;DHT22;6040;49.358;11.140;2022-08-01T10:27:05;33.00;62.90
11961;DHT22;6040;49.358;11.140;2022-08-01T10:29:36;33.50;76.10
11961;DHT22;6040;49.358;11.140;2022-08-01T10:32:04;33.30;62.10
11961;DHT22;6040;49.358;11.140;2022-08-01T10:34:33;33.30;62.20
11961;DHT22;6040;49.358;11.140;2022-08-01T10:37:01;33.00;62.20
11961;DHT22;6040;49.358;11.140;2022-08-01T10:39:30;32.50;62.60
11961;DHT22;6040;49.358;11.140;2022-08-01T10:41:57;33.00;72.60
11961;DHT22;6040;49.358;11.140;2022-08-01T10:44:26;33.50;72.00
11961;DHT22;6040;49.358;11.140;2022-08-01T10:46:57;34.10;68.50
11961;DHT22;6040;49.358;11.140;2022-08-01T10:49:29;34.40;58.70
11961;DHT22;6040;49.358;11.140;2022-08-01T10:51:57;34.30;57.80
11961;DHT22;6040;49.358;11.140;2022-08-01T10:54:24;34.90;58.30
11961;DHT22;6040;49.358;11.140;2022-08-01T10:56:53;34.90;71.40
11961;DHT22;6040;49.358;11.140;2022-08-01T10:59:22;35.40;57.00
11961;DHT22;6040;49.358;11.140;2022-08-01T11:01:56;35.30;54.90
11961;DHT22;6040;49.358;11.140;2022-08-01T11:04:33;34.80;56.30
11961;DHT22;6040;49.358;11.140;2022-08-01T11:07:05;34.00;57.40
11961;DHT22;6040;49.358;11.140;2022-08-01T11:09:40;33.50;58.70
11961;DHT22;6040;49.358;11.140;2022-08-01T11:12:10;33.20;59.70
11961;DHT22;6040;49.358;11.140;2022-08-01T11:17:43;33.10;59.90
11961;DHT22;6040;49.358;11.140;2022-08-01T11:20:15;33.70;59.00
11961;DHT22;6040;49.358;11.140;2022-08-01T11:26:15;33.70;57.50
11961;DHT22;6040;49.358;11.140;2022-08-01T11:28:46;33.40;58.20
11961;DHT22;6040;49.358;11.140;2022-08-01T11:31:33;33.10;92.70
11961;DHT22;6040;49.358;11.140;2022-08-01T11:34:00;32.90;58.60
11961;DHT22;6040;49.358;11.140;2022-08-01T11:36:27;32.70;58.70
11961;DHT22;6040;49.358;11.140;2022-08-01T11:39:13;32.50;58.90
11961;DHT22;6040;49.358;11.140;2022-08-01T11:41:41;32.90;58.70
11961;DHT22;6040;49.358;11.140;2022-08-01T11:44:11;33.20;57.40
11961;DHT22;6040;49.358;11.140;2022-08-01T11:46:53;33.20;57.40
11961;DHT22;6040;49.358;11.140;2022-08-01T11:49:32;33.10;58.60
11961;DHT22;6040;49.358;11.140;2022-08-01T11:52:05;33.20;58.50
11961;DHT22;6040;49.358;11.140;2022-08-01T11:54:34;33.80;58.10
11961;DHT22;6040;49.358;11.140;2022-08-01T11:57:05;34.30;56.90
11961;DHT22;6040;49.358;11.140;2022-08-01T11:59:38;33.80;56.40
11961;DHT22;6040;49.358;11.140;2022-08-01T12:02:15;33.80;56.80
11961;DHT22;6040;49.358;11.140;2022-08-01T12:04:53;33.70;56.80
11961;DHT22;6040;49.358;11.140;2022-08-01T12:07:20;33.70;56.40
11961;DHT22;6040;49.358;11.140;2022-08-01T12:09:48;33.30;56.50
11961;DHT22;6040;49.358;11.140;2022-08-01T12:12:22;33.00;57.50
11961;DHT22;6040;49.358;11.140;2022-08-01T12:14:55;32.90;58.30
11961;DHT22;6040;49.358;11.140;2022-08-01T12:17:36;32.60;59.10
11961;DHT22;6040;49.358;11.140;2022-08-01T12:20:05;32.80;59.60
11961;DHT22;6040;49.358;11.140;2022-08-01T12:22:33;33.10;57.90
11961;DHT22;6040;49.358;11.140;2022-08-01T12:25:08;33.00;58.00
11961;DHT22;6040;49.358;11.140;2022-08-01T12:27:36;32.90;58.20
11961;DHT22;6040;49.358;11.140;2022-08-01T12:30:07;32.70;59.60
11961;DHT22;6040;49.358;11.140;2022-08-01T12:32:36;33.00;59.30
11961;DHT22;6040;49.358;11.140;2022-08-01T12:35:05;33.30;58.60
11961;DHT22;6040;49.358;11.140;2022-08-01T12:37:35;33.50;57.90
11961;DHT22;6040;49.358;11.140;2022-08-01T12:40:09;33.80;57.40
11961;DHT22;6040;49.358;11.140;2022-08-01T12:42:37;33.50;57.10
11961;DHT22;6040;49.358;11.140;2022-08-01T12:45:08;33.10;57.10
11961;DHT22;6040;49.358;11.140;2022-08-01T12:47:36;32.90;58.00
11961;DHT22;6040;49.358;11.140;2022-08-01T12:50:05;32.70;58.10
11961;DHT22;6040;49.358;11.140;2022-08-01T12:52:33;32.50;58.60
11961;DHT22;6040;49.358;11.140;2022-08-01T12:55:10;32.30;58.80
11961;DHT22;6040;49.358;11.140;2022-08-01T12:57:39;32.10;59.10
11961;DHT22;6040;49.358;11.140;2022-08-01T13:00:12;31.80;59.50
11961;DHT22;6040;49.358;11.140;2022-08-01T13:02:40;31.60;59.70
11961;DHT22;6040;49.358;11.140;2022-08-01T13:05:09;31.40;60.30
11961;DHT22;6040;49.358;11.140;2022-08-01T13:07:42;31.30;60.60
11961;DHT22;6040;49.358;11.140;2022-08-01T13:10:09;31.50;60.70
11961;DHT22;6040;49.358;11.140;2022-08-01T13:12:37;32.00;59.80
11961;DHT22;6040;49.358;11.140;2022-08-01T13:15:21;32.30;59.40
11961;DHT22;6040;49.358;11.140;2022-08-01T13:17:49;32.70;58.70
11961;DHT22;6040;49.358;11.140;2022-08-01T13:20:27;32.70;58.10
11961;DHT22;6040;49.358;11.140;2022-08-01T13:22:55;32.80;59.10
11961;DHT22;6040;49.358;11.140;2022-08-01T13:25:22;32.40;58.70
11961;DHT22;6040;49.358;11.140;2022-08-01T13:27:49;32.30;58.90
11961;DHT22;6040;49.358;11.140;2022-08-01T13:30:17;32.00;59.00
11961;DHT22;6040;49.358;11.140;2022-08-01T13:32:57;31.80;59.60
11961;DHT22;6040;49.358;11.140;2022-08-01T13:35:24;31.60;60.20
11961;DHT22;6040;49.358;11.140;2022-08-01T13:37:51;31.30;60.70
11961;DHT22;6040;49.358;11.140;2022-08-01T13:40:24;31.20;61.60
11961;DHT22;6040;49.358;11.140;2022-08-01T13:42:52;31.10;62.20
11961;DHT22;6040;49.358;11.140;2022-08-01T13:45:20;31.20;62.50
11961;DHT22;6040;49.358;11.140;2022-08-01T13:47:48;31.10;62.00
11961;DHT22;6040;49.358;11.140;2022-08-01T13:50:15;31.30;62.30
11961;DHT22;6040;49.358;11.140;2022-08-01T13:52:42;31.50;61.50
11961;DHT22;6040;49.358;11.140;2022-08-01T13:55:09;31.70;61.20
11961;DHT22;6040;49.358;11.140;2022-08-01T13:57:36;31.70;60.90
11961;DHT22;6040;49.358;11.140;2022-08-01T14:00:04;31.70;60.60
11961;DHT22;6040;49.358;11.140;2022-08-01T14:02:32;31.40;59.50
11961;DHT22;6040;49.358;11.140;2022-08-01T14:05:00;31.30;59.90
11961;DHT22;6040;49.358;11.140;2022-08-01T14:07:27;31.30;60.30
11961;DHT22;6040;49.358;11.140;2022-08-01T14:09:54;31.50;59.70
11961;DHT22;6040;49.358;11.140;2022-08-01T14:12:21;31.60;59.30
11961;DHT22;6040;49.358;11.140;2022-08-01T14:14:49;31.80;59.40
11961;DHT22;6040;49.358;11.140;2022-08-01T14:17:16;32.00;59.90
11961;DHT22;6040;49.358;11.140;2022-08-01T14:19:42;32.20;59.70
11961;DHT22;6040;49.358;11.140;2022-08-01T14:22:11;32.20;58.50
11961;DHT22;6040;49.358;11.140;2022-08-01T14:24:38;32.10;58.00
11961;DHT22;6040;49.358;11.140;2022-08-01T14:27:04;32.00;57.80
11961;DHT22;6040;49.358;11.140;2022-08-01T14:29:31;32.10;58.00
11961;DHT22;6040;49.358;11.140;2022-08-01T14:31:58;31.90;57.40
11961;DHT22;6040;49.358;11.140;2022-08-01T14:34:25;31.90;57.70
11961;DHT22;6040;49.358;11.140;2022-08-01T14:36:52;32.00;58.10
11961;DHT22;6040;49.358;11.140;2022-08-01T14:39:21;32.10;58.00
11961;DHT22;6040;49.358;11.140;2022-08-01T14:41:48;32.30;59.00
11961;DHT22;6040;49.358;11.140;2022-08-01T14:44:15;32.50;58.80
11961;DHT22;6040;49.358;11.140;2022-08-01T14:46:41;32.40;58.00
11961;DHT22;6040;49.358;11.140;2022-08-01T14:49:09;32.30;58.00
11961;DHT22;6040;49.358;11.140;2022-08-01T14:51:36;31.90;58.70
11961;DHT22;6040;49.358;11.140;2022-08-01T14:54:04;31.90;59.20
11961;DHT22;6040;49.358;11.140;2022-08-01T14:56:32;31.80;59.40
11961;DHT22;6040;49.358;11.140;2022-08-01T14:58:59;31.90;59.10
11961;DHT22;6040;49.358;11.140;2022-08-01T15:01:26;31.80;59.30
11961;DHT22;6040;49.358;11.140;2022-08-01T15:03:53;31.70;59.80
11961;DHT22;6040;49.358;11.140;2022-08-01T15:06:21;31.60;59.70
11961;DHT22;6040;49.358;11.140;2022-08-01T15:08:48;31.40;58.70
11961;DHT22;6040;49.358;11.140;2022-08-01T15:11:15;31.30;59.50
11961;DHT22;6040;49.358;11.140;2022-08-01T15:13:43;31.20;59.60
11961;DHT22;6040;49.358;11.140;2022-08-01T15:16:10;31.20;59.60
11961;DHT22;6040;49.358;11.140;2022-08-01T15:18:37;31.50;59.20
11961;DHT22;6040;49.358;11.140;2022-08-01T15:21:04;31.70;59.10
11961;DHT22;6040;49.358;11.140;2022-08-01T15:23:31;31.90;58.80
11961;DHT22;6040;49.358;11.140;2022-08-01T15:25:58;32.00;58.70
11961;DHT22;6040;49.358;11.140;2022-08-01T15:28:25;32.10;58.20
11961;DHT22;6040;49.358;11.140;2022-08-01T15:30:53;31.80;57.90
11961;DHT22;6040;49.358;11.140;2022-08-01T15:33:20;31.60;58.70
11961;DHT22;6040;49.358;11.140;2022-08-01T15:35:50;31.60;58.50
11961;DHT22;6040;49.358;11.140;2022-08-01T15:38:18;31.50;59.70
11961;DHT22;6040;49.358;11.140;2022-08-01T15:40:45;31.30;59.30
11961;DHT22;6040;49.358;11.140;2022-08-01T15:43:12;31.20;59.70
11961;DHT22;6040;49.358;11.140;2022-08-01T15:45:38;30.90;60.20
11961;DHT22;6040;49.358;11.140;2022-08-01T15:48:07;30.70;59.90